sensor_id;sensor_type;location;lat;lon;timestamp;pressure;altitude;pressure_sealevel;temperature;humidity
84022;BME280;74108;48.636;9.492;2024-01-27T00:00:23;99505.16;;;2.20;83.61
84022;BME280;74108;48.636;9.492;2024-01-27T00:02:49;99511.16;;;2.21;83.45
84022;BME280;74108;48.636;9.492;2024-01-27T00:05:14;99517.88;;;1.96;83.61
84022;BME280;74108;48.636;9.492;2024-01-27T00:07:40;99527.19;;;1.89;84.40
84022;BME280;74108;48.636;9.492;2024-01-27T00:10:06;99525.34;;;1.81;84.49
84022;BME280;74108;48.636;9.492;2024-01-27T00:12:31;99526.31;;;1.80;85.02
84022;BME280;74108;48.636;9.492;2024-01-27T00:14:57;99536.34;;;1.83;84.84
84022;BME280;74108;48.636;9.492;2024-01-27T00:17:23;99537.09;;;1.93;84.23
84022;BME280;74108;48.636;9.492;2024-01-27T00:19:54;99540.19;;;1.97;83.61
84022;BME280;74108;48.636;9.492;2024-01-27T00:22:20;99535.03;;;1.97;83.96
84022;BME280;74108;48.636;9.492;2024-01-27T00:24:46;99537.16;;;1.84;83.07
84022;BME280;74108;48.636;9.492;2024-01-27T00:27:12;99538.13;;;1.65;83.19
84022;BME280;74108;48.636;9.492;2024-01-27T00:29:37;99538.25;;;1.64;83.63
84022;BME280;74108;48.636;9.492;2024-01-27T00:32:02;99542.00;;;1.52;84.29
84022;BME280;74108;48.636;9.492;2024-01-27T00:34:28;99546.13;;;1.45;84.13
84022;BME280;74108;48.636;9.492;2024-01-27T00:36:53;99549.88;;;1.32;85.94
84022;BME280;74108;48.636;9.492;2024-01-27T00:39:19;99553.66;;;1.38;85.31
84022;BME280;74108;48.636;9.492;2024-01-27T00:41:45;99565.44;;;1.40;86.06
84022;BME280;74108;48.636;9.492;2024-01-27T00:44:10;99561.47;;;1.46;86.41
84022;BME280;74108;48.636;9.492;2024-01-27T00:46:39;99556.03;;;1.49;85.98
84022;BME280;74108;48.636;9.492;2024-01-27T00:49:04;99563.38;;;1.44;85.64
84022;BME280;74108;48.636;9.492;2024-01-27T00:51:31;99556.16;;;1.48;85.77
84022;BME280;74108;48.636;9.492;2024-01-27T00:53:56;99561.41;;;1.56;85.49
84022;BME280;74108;48.636;9.492;2024-01-27T00:56:22;99560.44;;;1.57;85.16
84022;BME280;74108;48.636;9.492;2024-01-27T00:58:47;99554.34;;;1.58;84.05
84022;BME280;74108;48.636;9.492;2024-01-27T01:01:12;99553.50;;;1.57;82.90
84022;BME280;74108;48.636;9.492;2024-01-27T01:03:38;99557.06;;;1.56;82.88
84022;BME280;74108;48.636;9.492;2024-01-27T01:06:03;99550.00;;;1.31;83.10
84022;BME280;74108;48.636;9.492;2024-01-27T01:08:32;99555.56;;;0.99;84.44
84022;BME280;74108;48.636;9.492;2024-01-27T01:10:58;99564.44;;;0.97;84.65
84022;BME280;74108;48.636;9.492;2024-01-27T01:13:23;99562.56;;;0.89;86.18
84022;BME280;74108;48.636;9.492;2024-01-27T01:15:49;99564.78;;;1.02;86.26
84022;BME280;74108;48.636;9.492;2024-01-27T01:18:14;99568.63;;;0.98;86.47
84022;BME280;74108;48.636;9.492;2024-01-27T01:20:40;99572.50;;;1.11;85.66
84022;BME280;74108;48.636;9.492;2024-01-27T01:23:06;99574.22;;;1.20;85.99
84022;BME280;74108;48.636;9.492;2024-01-27T01:25:58;99580.50;;;1.18;84.49
84022;BME280;74108;48.636;9.492;2024-01-27T01:28:23;99578.34;;;1.13;83.60
84022;BME280;74108;48.636;9.492;2024-01-27T01:30:52;99561.91;;;1.14;83.79
84022;BME280;74108;48.636;9.492;2024-01-27T01:33:33;99572.66;;;1.10;84.67
84022;BME280;74108;48.636;9.492;2024-01-27T01:35:58;99573.09;;;1.05;85.49
84022;BME280;74108;48.636;9.492;2024-01-27T01:38:36;99569.84;;;1.03;84.62
84022;BME280;74108;48.636;9.492;2024-01-27T01:41:05;99570.50;;;1.05;85.08
84022;BME280;74108;48.636;9.492;2024-01-27T01:43:31;99578.63;;;1.10;84.99
84022;BME280;74108;48.636;9.492;2024-01-27T01:45:56;99578.38;;;1.04;85.50
84022;BME280;74108;48.636;9.492;2024-01-27T01:48:22;99570.06;;;1.10;85.39
84022;BME280;74108;48.636;9.492;2024-01-27T01:50:49;99577.03;;;1.00;84.11
84022;BME280;74108;48.636;9.492;2024-01-27T01:54:01;99573.81;;;0.88;85.00
84022;BME280;74108;48.636;9.492;2024-01-27T01:56:28;99573.56;;;0.82;84.22
84022;BME280;74108;48.636;9.492;2024-01-27T01:58:57;99583.38;;;0.68;85.29
84022;BME280;74108;48.636;9.492;2024-01-27T02:01:35;99577.00;;;0.63;85.41
84022;BME280;74108;48.636;9.492;2024-01-27T02:04:04;99579.84;;;0.60;85.14
84022;BME280;74108;48.636;9.492;2024-01-27T02:06:50;99573.88;;;0.69;85.65
84022;BME280;74108;48.636;9.492;2024-01-27T02:09:16;99576.06;;;0.64;86.46
84022;BME280;74108;48.636;9.492;2024-01-27T02:11:45;99590.13;;;0.79;86.29
84022;BME280;74108;48.636;9.492;2024-01-27T02:14:17;99591.88;;;0.88;86.56
84022;BME280;74108;48.636;9.492;2024-01-27T02:17:32;99600.56;;;0.97;83.28
84022;BME280;74108;48.636;9.492;2024-01-27T02:19:58;99610.06;;;0.87;83.36
84022;BME280;74108;48.636;9.492;2024-01-27T02:22:38;99608.16;;;0.89;84.25
84022;BME280;74108;48.636;9.492;2024-01-27T02:25:38;99618.19;;;1.01;84.20
84022;BME280;74108;48.636;9.492;2024-01-27T02:28:04;99618.00;;;1.12;84.71
84022;BME280;74108;48.636;9.492;2024-01-27T02:30:33;99630.75;;;1.23;84.48
84022;BME280;74108;48.636;9.492;2024-01-27T02:33:14;99631.88;;;1.38;84.13
84022;BME280;74108;48.636;9.492;2024-01-27T02:36:08;99632.75;;;1.29;83.65
84022;BME280;74108;48.636;9.492;2024-01-27T02:38:33;99640.38;;;1.31;84.34
84022;BME280;74108;48.636;9.492;2024-01-27T02:41:02;99648.44;;;1.46;84.34
84022;BME280;74108;48.636;9.492;2024-01-27T02:43:51;99640.38;;;1.58;84.51
84022;BME280;74108;48.636;9.492;2024-01-27T02:46:53;99649.03;;;1.67;84.15
84022;BME280;74108;48.636;9.492;2024-01-27T02:50:12;99646.44;;;1.67;85.17
84022;BME280;74108;48.636;9.492;2024-01-27T02:52:56;99651.84;;;1.73;84.73
84022;BME280;74108;48.636;9.492;2024-01-27T02:59:16;99653.28;;;1.85;84.42
84022;BME280;74108;48.636;9.492;2024-01-27T03:01:42;99656.03;;;2.01;84.89
84022;BME280;74108;48.636;9.492;2024-01-27T03:04:40;99657.41;;;2.23;84.02
84022;BME280;74108;48.636;9.492;2024-01-27T03:11:24;99648.97;;;2.21;84.32
84022;BME280;74108;48.636;9.492;2024-01-27T03:14:35;99664.13;;;2.34;83.72
84022;BME280;74108;48.636;9.492;2024-01-27T03:17:06;99662.47;;;2.33;83.40
84022;BME280;74108;48.636;9.492;2024-01-27T03:19:32;99670.25;;;2.33;83.73
84022;BME280;74108;48.636;9.492;2024-01-27T03:21:57;99659.22;;;2.31;83.87
84022;BME280;74108;48.636;9.492;2024-01-27T03:24:23;99659.09;;;2.32;84.24
84022;BME280;74108;48.636;9.492;2024-01-27T03:26:48;99663.19;;;2.35;84.06
84022;BME280;74108;48.636;9.492;2024-01-27T03:29:13;99652.13;;;2.33;83.85
84022;BME280;74108;48.636;9.492;2024-01-27T03:31:39;99654.66;;;2.42;83.83
84022;BME280;74108;48.636;9.492;2024-01-27T03:34:05;99662.94;;;2.46;83.68
84022;BME280;74108;48.636;9.492;2024-01-27T03:36:30;99658.72;;;2.45;83.96
84022;BME280;74108;48.636;9.492;2024-01-27T03:38:57;99658.44;;;2.48;83.04
84022;BME280;74108;48.636;9.492;2024-01-27T03:41:23;99658.78;;;2.35;83.34
84022;BME280;74108;48.636;9.492;2024-01-27T03:43:48;99662.78;;;2.30;84.06
84022;BME280;74108;48.636;9.492;2024-01-27T03:46:14;99664.19;;;2.24;84.12
84022;BME280;74108;48.636;9.492;2024-01-27T03:48:39;99668.69;;;2.22;84.46
84022;BME280;74108;48.636;9.492;2024-01-27T03:51:04;99671.50;;;2.29;84.10
84022;BME280;74108;48.636;9.492;2024-01-27T03:53:32;99674.09;;;2.29;83.38
84022;BME280;74108;48.636;9.492;2024-01-27T03:55:58;99668.41;;;2.25;84.51
84022;BME280;74108;48.636;9.492;2024-01-27T03:58:30;99678.66;;;2.17;84.84
84022;BME280;74108;48.636;9.492;2024-01-27T04:00:56;99684.94;;;2.14;84.63
84022;BME280;74108;48.636;9.492;2024-01-27T04:03:22;99688.75;;;2.10;85.08
84022;BME280;74108;48.636;9.492;2024-01-27T04:05:47;99675.78;;;2.02;84.03
84022;BME280;74108;48.636;9.492;2024-01-27T04:08:13;99675.00;;;1.92;85.03
84022;BME280;74108;48.636;9.492;2024-01-27T04:10:38;99685.63;;;1.89;85.56
84022;BME280;74108;48.636;9.492;2024-01-27T04:13:04;99681.91;;;1.74;86.36
84022;BME280;74108;48.636;9.492;2024-01-27T04:15:29;99680.38;;;1.81;86.06
84022;BME280;74108;48.636;9.492;2024-01-27T04:17:55;99687.88;;;1.75;85.46
84022;BME280;74108;48.636;9.492;2024-01-27T04:20:22;99691.44;;;1.64;85.22
84022;BME280;74108;48.636;9.492;2024-01-27T04:22:48;99683.69;;;1.64;84.27
84022;BME280;74108;48.636;9.492;2024-01-27T04:25:13;99683.47;;;1.58;85.04
84022;BME280;74108;48.636;9.492;2024-01-27T04:27:40;99691.22;;;1.58;85.05
84022;BME280;74108;48.636;9.492;2024-01-27T04:30:06;99692.03;;;1.58;85.01
84022;BME280;74108;48.636;9.492;2024-01-27T04:32:33;99695.31;;;1.51;85.14
84022;BME280;74108;48.636;9.492;2024-01-27T04:34:58;99693.44;;;1.43;85.61
84022;BME280;74108;48.636;9.492;2024-01-27T04:37:24;99699.00;;;1.38;85.62
84022;BME280;74108;48.636;9.492;2024-01-27T04:39:49;99692.06;;;1.49;84.86
84022;BME280;74108;48.636;9.492;2024-01-27T04:42:15;99690.19;;;1.68;84.07
84022;BME280;74108;48.636;9.492;2024-01-27T04:44:41;99697.31;;;1.57;83.25
84022;BME280;74108;48.636;9.492;2024-01-27T04:47:07;99694.69;;;1.29;85.01
84022;BME280;74108;48.636;9.492;2024-01-27T04:49:32;99693.09;;;1.19;85.49
84022;BME280;74108;48.636;9.492;2024-01-27T04:51:58;99698.53;;;1.16;85.73
84022;BME280;74108;48.636;9.492;2024-01-27T04:54:23;99693.13;;;1.00;84.82
84022;BME280;74108;48.636;9.492;2024-01-27T04:56:48;99699.38;;;0.88;85.27
84022;BME280;74108;48.636;9.492;2024-01-27T04:59:15;99708.34;;;0.93;86.88
84022;BME280;74108;48.636;9.492;2024-01-27T05:01:44;99706.59;;;0.94;87.02
84022;BME280;74108;48.636;9.492;2024-01-27T05:04:09;99694.78;;;0.91;86.20
84022;BME280;74108;48.636;9.492;2024-01-27T05:06:35;99702.53;;;0.82;84.57
84022;BME280;74108;48.636;9.492;2024-01-27T05:09:00;99707.69;;;0.82;84.71
84022;BME280;74108;48.636;9.492;2024-01-27T05:11:30;99697.38;;;0.72;84.86
84022;BME280;74108;48.636;9.492;2024-01-27T05:13:56;99700.66;;;0.64;84.26
84022;BME280;74108;48.636;9.492;2024-01-27T05:16:21;99703.34;;;0.53;84.85
84022;BME280;74108;48.636;9.492;2024-01-27T05:18:47;99706.34;;;0.58;85.99
84022;BME280;74108;48.636;9.492;2024-01-27T05:24:13;99702.66;;;0.42;85.56
84022;BME280;74108;48.636;9.492;2024-01-27T05:29:37;99705.94;;;0.34;86.14
84022;BME280;74108;48.636;9.492;2024-01-27T05:32:25;99700.09;;;0.32;86.15
84022;BME280;74108;48.636;9.492;2024-01-27T05:38:07;99716.31;;;0.23;86.93
84022;BME280;74108;48.636;9.492;2024-01-27T05:44:40;99712.66;;;0.07;86.67
84022;BME280;74108;48.636;9.492;2024-01-27T05:48:00;99718.50;;;0.28;86.78
84022;BME280;74108;48.636;9.492;2024-01-27T05:50:58;99718.38;;;0.20;87.46
84022;BME280;74108;48.636;9.492;2024-01-27T05:53:51;99725.41;;;0.08;87.20
84022;BME280;74108;48.636;9.492;2024-01-27T05:56:58;99721.06;;;0.09;87.18
84022;BME280;74108;48.636;9.492;2024-01-27T05:59:27;99717.25;;;0.03;87.65
84022;BME280;74108;48.636;9.492;2024-01-27T06:02:20;99725.38;;;-0.02;88.01
84022;BME280;74108;48.636;9.492;2024-01-27T06:07:56;99732.66;;;-0.16;87.81
84022;BME280;74108;48.636;9.492;2024-01-27T06:10:24;99729.50;;;-0.20;88.30
84022;BME280;74108;48.636;9.492;2024-01-27T06:12:50;99722.47;;;-0.18;88.60
84022;BME280;74108;48.636;9.492;2024-01-27T06:15:29;99727.50;;;-0.16;88.96
84022;BME280;74108;48.636;9.492;2024-01-27T06:17:58;99727.13;;;-0.12;89.47
84022;BME280;74108;48.636;9.492;2024-01-27T06:20:27;99731.97;;;-0.09;88.72
84022;BME280;74108;48.636;9.492;2024-01-27T06:22:59;99717.25;;;0.03;86.59
84022;BME280;74108;48.636;9.492;2024-01-27T06:25:24;99733.50;;;0.04;86.07
84022;BME280;74108;48.636;9.492;2024-01-27T06:27:53;99724.53;;;-0.02;86.06
84022;BME280;74108;48.636;9.492;2024-01-27T06:30:18;99736.69;;;-0.14;86.06
84022;BME280;74108;48.636;9.492;2024-01-27T06:32:47;99726.53;;;-0.15;87.13
84022;BME280;74108;48.636;9.492;2024-01-27T06:35:12;99737.72;;;-0.35;86.42
84022;BME280;74108;48.636;9.492;2024-01-27T06:37:38;99740.91;;;-0.43;86.05
84022;BME280;74108;48.636;9.492;2024-01-27T06:40:03;99747.28;;;-0.47;87.05
84022;BME280;74108;48.636;9.492;2024-01-27T06:42:29;99750.16;;;-0.40;87.67
84022;BME280;74108;48.636;9.492;2024-01-27T06:44:54;99752.47;;;-0.37;87.29
84022;BME280;74108;48.636;9.492;2024-01-27T06:47:20;99760.31;;;-0.39;87.65
84022;BME280;74108;48.636;9.492;2024-01-27T06:49:45;99767.66;;;-0.34;89.19
84022;BME280;74108;48.636;9.492;2024-01-27T06:52:10;99765.16;;;-0.15;89.30
84022;BME280;74108;48.636;9.492;2024-01-27T06:54:37;99770.19;;;-0.14;88.08
84022;BME280;74108;48.636;9.492;2024-01-27T06:57:06;99768.00;;;-0.18;87.58
84022;BME280;74108;48.636;9.492;2024-01-27T06:59:31;99772.34;;;-0.19;87.88
84022;BME280;74108;48.636;9.492;2024-01-27T07:01:57;99761.66;;;-0.14;87.48
84022;BME280;74108;48.636;9.492;2024-01-27T07:04:23;99757.59;;;-0.17;86.95
84022;BME280;74108;48.636;9.492;2024-01-27T07:06:48;99758.13;;;-0.13;86.39
84022;BME280;74108;48.636;9.492;2024-01-27T07:09:13;99757.00;;;-0.20;86.19
84022;BME280;74108;48.636;9.492;2024-01-27T07:11:39;99750.69;;;-0.16;86.35
84022;BME280;74108;48.636;9.492;2024-01-27T07:14:04;99751.47;;;-0.16;86.00
84022;BME280;74108;48.636;9.492;2024-01-27T07:16:31;99754.56;;;-0.22;86.36
84022;BME280;74108;48.636;9.492;2024-01-27T07:18:57;99766.28;;;-0.38;87.78
84022;BME280;74108;48.636;9.492;2024-01-27T07:21:25;99768.38;;;-0.23;87.87
84022;BME280;74108;48.636;9.492;2024-01-27T07:23:52;99766.00;;;-0.15;86.39
84022;BME280;74108;48.636;9.492;2024-01-27T07:26:29;99757.44;;;-0.15;85.81
84022;BME280;74108;48.636;9.492;2024-01-27T07:28:54;99770.91;;;-0.12;85.72
84022;BME280;74108;48.636;9.492;2024-01-27T07:31:21;99771.28;;;-0.16;86.22
84022;BME280;74108;48.636;9.492;2024-01-27T07:33:47;99775.66;;;-0.07;85.32
84022;BME280;74108;48.636;9.492;2024-01-27T07:36:12;99776.19;;;-0.04;84.35
84022;BME280;74108;48.636;9.492;2024-01-27T07:38:37;99767.78;;;-0.06;85.30
84022;BME280;74108;48.636;9.492;2024-01-27T07:41:03;99775.97;;;0.09;85.48
84022;BME280;74108;48.636;9.492;2024-01-27T07:43:28;99774.19;;;0.10;84.51
84022;BME280;74108;48.636;9.492;2024-01-27T07:45:54;99764.19;;;0.07;84.13
84022;BME280;74108;48.636;9.492;2024-01-27T07:48:19;99763.22;;;0.08;84.69
84022;BME280;74108;48.636;9.492;2024-01-27T07:50:45;99755.47;;;0.08;84.46
84022;BME280;74108;48.636;9.492;2024-01-27T07:53:13;99763.09;;;0.19;85.25
84022;BME280;74108;48.636;9.492;2024-01-27T07:55:39;99756.78;;;0.32;84.86
84022;BME280;74108;48.636;9.492;2024-01-27T07:58:04;99758.72;;;0.59;84.60
84022;BME280;74108;48.636;9.492;2024-01-27T08:00:31;99757.66;;;0.81;84.03
84022;BME280;74108;48.636;9.492;2024-01-27T08:02:58;99762.69;;;1.01;83.91
84022;BME280;74108;48.636;9.492;2024-01-27T08:05:23;99758.28;;;1.30;82.59
84022;BME280;74108;48.636;9.492;2024-01-27T08:07:48;99758.34;;;1.67;81.77
84022;BME280;74108;48.636;9.492;2024-01-27T08:10:15;99764.22;;;1.87;81.14
84022;BME280;74108;48.636;9.492;2024-01-27T08:12:40;99760.31;;;2.10;80.49
84022;BME280;74108;48.636;9.492;2024-01-27T08:15:06;99760.41;;;2.45;79.53
84022;BME280;74108;48.636;9.492;2024-01-27T08:17:32;99757.63;;;2.74;78.30
84022;BME280;74108;48.636;9.492;2024-01-27T08:19:58;99757.09;;;2.88;77.32
84022;BME280;74108;48.636;9.492;2024-01-27T08:22:23;99756.03;;;3.16;76.62
84022;BME280;74108;48.636;9.492;2024-01-27T08:24:48;99764.38;;;3.28;76.62
84022;BME280;74108;48.636;9.492;2024-01-27T08:27:14;99756.09;;;3.50;76.58
84022;BME280;74108;48.636;9.492;2024-01-27T08:29:39;99754.03;;;3.79;75.02
84022;BME280;74108;48.636;9.492;2024-01-27T08:32:05;99755.13;;;4.10;74.50
84022;BME280;74108;48.636;9.492;2024-01-27T08:34:30;99750.69;;;4.37;74.11
84022;BME280;74108;48.636;9.492;2024-01-27T08:37:01;99748.47;;;4.58;72.42
84022;BME280;74108;48.636;9.492;2024-01-27T08:39:27;99758.38;;;4.62;73.10
84022;BME280;74108;48.636;9.492;2024-01-27T08:41:53;99759.50;;;4.60;74.10
84022;BME280;74108;48.636;9.492;2024-01-27T08:44:18;99754.84;;;5.04;72.00
84022;BME280;74108;48.636;9.492;2024-01-27T08:46:43;99758.22;;;5.44;70.47
84022;BME280;74108;48.636;9.492;2024-01-27T08:49:09;99749.75;;;5.58;69.23
84022;BME280;74108;48.636;9.492;2024-01-27T08:51:34;99743.19;;;5.79;68.69
84022;BME280;74108;48.636;9.492;2024-01-27T08:54:00;99736.06;;;5.89;68.96
84022;BME280;74108;48.636;9.492;2024-01-27T08:56:25;99730.94;;;6.03;68.73
84022;BME280;74108;48.636;9.492;2024-01-27T08:58:51;99734.56;;;6.33;66.86
84022;BME280;74108;48.636;9.492;2024-01-27T09:01:17;99732.22;;;6.46;67.53
84022;BME280;74108;48.636;9.492;2024-01-27T09:03:43;99728.75;;;6.23;66.89
84022;BME280;74108;48.636;9.492;2024-01-27T09:06:09;99724.44;;;6.38;67.84
84022;BME280;74108;48.636;9.492;2024-01-27T09:08:34;99723.66;;;6.38;66.61
84022;BME280;74108;48.636;9.492;2024-01-27T09:11:01;99712.88;;;6.10;68.35
84022;BME280;74108;48.636;9.492;2024-01-27T09:13:27;99712.66;;;6.73;66.66
84022;BME280;74108;48.636;9.492;2024-01-27T09:15:52;99705.59;;;7.04;65.64
84022;BME280;74108;48.636;9.492;2024-01-27T09:18:17;99708.19;;;7.41;63.95
84022;BME280;74108;48.636;9.492;2024-01-27T09:20:43;99703.91;;;6.66;65.71
84022;BME280;74108;48.636;9.492;2024-01-27T09:23:08;99704.72;;;6.44;66.73
84022;BME280;74108;48.636;9.492;2024-01-27T09:25:34;99713.06;;;6.39;66.97
84022;BME280;74108;48.636;9.492;2024-01-27T09:27:59;99721.91;;;6.98;66.24
84022;BME280;74108;48.636;9.492;2024-01-27T09:30:28;99716.97;;;7.69;62.79
84022;BME280;74108;48.636;9.492;2024-01-27T09:32:54;99720.31;;;7.63;62.75
84022;BME280;74108;48.636;9.492;2024-01-27T09:35:19;99717.06;;;7.91;62.74
84022;BME280;74108;48.636;9.492;2024-01-27T09:37:45;99716.84;;;8.21;61.55
84022;BME280;74108;48.636;9.492;2024-01-27T09:40:12;99721.38;;;8.27;61.09
84022;BME280;74108;48.636;9.492;2024-01-27T09:42:37;99714.13;;;8.44;60.17
84022;BME280;74108;48.636;9.492;2024-01-27T09:45:04;99721.59;;;8.89;59.82
84022;BME280;74108;48.636;9.492;2024-01-27T09:47:30;99717.88;;;8.98;59.23
84022;BME280;74108;48.636;9.492;2024-01-27T09:49:55;99724.91;;;8.56;61.46
84022;BME280;74108;48.636;9.492;2024-01-27T09:52:22;99730.28;;;8.33;61.94
84022;BME280;74108;48.636;9.492;2024-01-27T09:54:47;99730.53;;;8.23;62.49
84022;BME280;74108;48.636;9.492;2024-01-27T09:57:13;99744.06;;;8.27;62.86
84022;BME280;74108;48.636;9.492;2024-01-27T09:59:41;99745.25;;;8.10;64.24
84022;BME280;74108;48.636;9.492;2024-01-27T10:02:11;99750.50;;;8.45;62.39
84022;BME280;74108;48.636;9.492;2024-01-27T10:04:41;99756.00;;;8.51;62.54
84022;BME280;74108;48.636;9.492;2024-01-27T10:07:07;99757.38;;;8.46;62.04
84022;BME280;74108;48.636;9.492;2024-01-27T10:09:33;99766.72;;;8.41;61.39
84022;BME280;74108;48.636;9.492;2024-01-27T10:12:01;99767.69;;;8.55;61.08
84022;BME280;74108;48.636;9.492;2024-01-27T10:14:40;99774.06;;;8.67;60.47
84022;BME280;74108;48.636;9.492;2024-01-27T10:17:09;99766.09;;;8.96;59.15
84022;BME280;74108;48.636;9.492;2024-01-27T10:19:35;99770.09;;;9.13;57.57
84022;BME280;74108;48.636;9.492;2024-01-27T10:22:00;99764.31;;;8.96;58.92
84022;BME280;74108;48.636;9.492;2024-01-27T10:24:31;99768.63;;;9.04;58.95
84022;BME280;74108;48.636;9.492;2024-01-27T10:27:04;99771.03;;;9.27;59.25
84022;BME280;74108;48.636;9.492;2024-01-27T10:29:32;99770.28;;;9.11;61.20
84022;BME280;74108;48.636;9.492;2024-01-27T10:32:08;99770.00;;;9.00;61.32
84022;BME280;74108;48.636;9.492;2024-01-27T10:34:34;99771.09;;;9.12;61.90
84022;BME280;74108;48.636;9.492;2024-01-27T10:37:00;99770.34;;;9.18;61.21
84022;BME280;74108;48.636;9.492;2024-01-27T10:39:25;99774.25;;;9.07;61.97
84022;BME280;74108;48.636;9.492;2024-01-27T10:41:51;99756.03;;;8.93;62.09
84022;BME280;74108;48.636;9.492;2024-01-27T10:44:19;99762.56;;;9.03;60.78
84022;BME280;74108;48.636;9.492;2024-01-27T10:46:48;99760.72;;;9.18;60.22
84022;BME280;74108;48.636;9.492;2024-01-27T10:49:18;99762.31;;;9.47;60.00
84022;BME280;74108;48.636;9.492;2024-01-27T10:51:45;99755.75;;;9.30;61.63
84022;BME280;74108;48.636;9.492;2024-01-27T10:54:15;99747.81;;;9.45;59.23
84022;BME280;74108;48.636;9.492;2024-01-27T10:56:44;99756.09;;;9.48;59.36
84022;BME280;74108;48.636;9.492;2024-01-27T10:59:11;99754.09;;;9.50;59.10
84022;BME280;74108;48.636;9.492;2024-01-27T11:01:40;99747.56;;;9.40;60.71
84022;BME280;74108;48.636;9.492;2024-01-27T11:04:08;99739.16;;;9.78;58.00
84022;BME280;74108;48.636;9.492;2024-01-27T11:06:36;99742.63;;;9.85;57.03
84022;BME280;74108;48.636;9.492;2024-01-27T11:09:04;99737.28;;;9.66;59.01
84022;BME280;74108;48.636;9.492;2024-01-27T11:11:31;99715.94;;;9.97;57.16
84022;BME280;74108;48.636;9.492;2024-01-27T11:13:57;99715.84;;;9.83;56.61
84022;BME280;74108;48.636;9.492;2024-01-27T11:16:23;99708.66;;;9.58;57.18
84022;BME280;74108;48.636;9.492;2024-01-27T11:18:49;99701.84;;;10.04;56.00
84022;BME280;74108;48.636;9.492;2024-01-27T11:21:15;99692.31;;;9.90;55.89
84022;BME280;74108;48.636;9.492;2024-01-27T11:23:41;99693.66;;;9.79;56.04
84022;BME280;74108;48.636;9.492;2024-01-27T11:26:08;99688.31;;;9.94;57.11
84022;BME280;74108;48.636;9.492;2024-01-27T11:28:34;99686.88;;;9.92;57.04
84022;BME280;74108;48.636;9.492;2024-01-27T11:31:08;99688.06;;;10.30;55.48
84022;BME280;74108;48.636;9.492;2024-01-27T11:33:41;99680.03;;;10.38;53.56
84022;BME280;74108;48.636;9.492;2024-01-27T11:36:07;99674.97;;;10.43;53.01
84022;BME280;74108;48.636;9.492;2024-01-27T11:38:33;99674.22;;;10.62;52.74
84022;BME280;74108;48.636;9.492;2024-01-27T11:41:01;99672.03;;;10.66;52.54
84022;BME280;74108;48.636;9.492;2024-01-27T11:43:27;99674.44;;;10.87;51.81
84022;BME280;74108;48.636;9.492;2024-01-27T11:45:57;99674.22;;;10.75;51.86
84022;BME280;74108;48.636;9.492;2024-01-27T11:48:23;99663.88;;;10.34;53.39
84022;BME280;74108;48.636;9.492;2024-01-27T11:50:48;99658.06;;;10.45;52.50
84022;BME280;74108;48.636;9.492;2024-01-27T11:53:13;99655.06;;;10.62;52.66
84022;BME280;74108;48.636;9.492;2024-01-27T11:55:39;99646.00;;;10.90;51.34
84022;BME280;74108;48.636;9.492;2024-01-27T11:58:05;99640.56;;;10.85;51.00
84022;BME280;74108;48.636;9.492;2024-01-27T12:00:31;99641.69;;;10.17;51.42
84022;BME280;74108;48.636;9.492;2024-01-27T12:02:57;99633.66;;;10.38;50.35
84022;BME280;74108;48.636;9.492;2024-01-27T12:05:22;99634.72;;;10.64;51.30
84022;BME280;74108;48.636;9.492;2024-01-27T12:07:47;99630.03;;;11.18;49.04
84022;BME280;74108;48.636;9.492;2024-01-27T12:10:13;99639.13;;;11.09;48.66
84022;BME280;74108;48.636;9.492;2024-01-27T12:12:39;99631.22;;;11.42;49.27
84022;BME280;74108;48.636;9.492;2024-01-27T12:15:05;99623.97;;;11.94;47.70
84022;BME280;74108;48.636;9.492;2024-01-27T12:17:30;99614.44;;;12.00;45.38
84022;BME280;74108;48.636;9.492;2024-01-27T12:19:55;99623.63;;;12.53;45.34
84022;BME280;74108;48.636;9.492;2024-01-27T12:22:29;99622.28;;;13.18;43.93
84022;BME280;74108;48.636;9.492;2024-01-27T12:24:56;99624.34;;;13.53;43.12
84022;BME280;74108;48.636;9.492;2024-01-27T12:27:32;99623.78;;;14.28;42.17
84022;BME280;74108;48.636;9.492;2024-01-27T12:29:58;99623.28;;;15.02;39.55
84022;BME280;74108;48.636;9.492;2024-01-27T12:32:24;99617.53;;;16.20;35.65
84022;BME280;74108;48.636;9.492;2024-01-27T12:34:49;99617.28;;;16.99;35.02
84022;BME280;74108;48.636;9.492;2024-01-27T12:37:15;99622.09;;;17.02;34.08
84022;BME280;74108;48.636;9.492;2024-01-27T12:39:44;99619.81;;;16.28;35.23
84022;BME280;74108;48.636;9.492;2024-01-27T12:42:10;99610.56;;;16.58;34.63
84022;BME280;74108;48.636;9.492;2024-01-27T12:44:36;99600.25;;;16.45;34.68
84022;BME280;74108;48.636;9.492;2024-01-27T12:47:01;99600.69;;;16.70;33.80
84022;BME280;74108;48.636;9.492;2024-01-27T12:49:27;99589.84;;;16.89;33.78
84022;BME280;74108;48.636;9.492;2024-01-27T12:51:52;99590.03;;;15.41;36.46
84022;BME280;74108;48.636;9.492;2024-01-27T12:54:18;99584.13;;;15.74;35.53
84022;BME280;74108;48.636;9.492;2024-01-27T12:56:44;99584.19;;;16.35;34.93
84022;BME280;74108;48.636;9.492;2024-01-27T12:59:10;99579.69;;;16.80;34.20
84022;BME280;74108;48.636;9.492;2024-01-27T13:01:35;99574.06;;;17.53;33.30
84022;BME280;74108;48.636;9.492;2024-01-27T13:04:02;99568.56;;;17.82;33.17
84022;BME280;74108;48.636;9.492;2024-01-27T13:06:27;99565.34;;;17.80;33.19
84022;BME280;74108;48.636;9.492;2024-01-27T13:08:52;99565.63;;;17.57;32.68
84022;BME280;74108;48.636;9.492;2024-01-27T13:11:20;99569.03;;;15.86;35.59
84022;BME280;74108;48.636;9.492;2024-01-27T13:13:45;99565.75;;;14.93;38.56
84022;BME280;74108;48.636;9.492;2024-01-27T13:16:11;99564.47;;;16.43;35.97
84022;BME280;74108;48.636;9.492;2024-01-27T13:18:36;99558.84;;;17.06;33.93
84022;BME280;74108;48.636;9.492;2024-01-27T13:21:02;99565.06;;;17.54;32.88
84022;BME280;74108;48.636;9.492;2024-01-27T13:23:29;99556.75;;;17.08;33.32
84022;BME280;74108;48.636;9.492;2024-01-27T13:25:55;99563.28;;;16.83;34.55
84022;BME280;74108;48.636;9.492;2024-01-27T13:28:20;99562.19;;;14.11;38.37
84022;BME280;74108;48.636;9.492;2024-01-27T13:30:45;99574.50;;;12.47;42.96
84022;BME280;74108;48.636;9.492;2024-01-27T13:33:11;99568.81;;;11.44;46.13
84022;BME280;74108;48.636;9.492;2024-01-27T13:35:37;99571.56;;;10.78;48.44
84022;BME280;74108;48.636;9.492;2024-01-27T13:38:05;99568.75;;;10.27;49.47